createdAt,value
2017-10-24T00:01:37.385Z,97736.97
2017-10-24T00:04:04.639Z,97741.20
2017-10-24T00:06:31.074Z,97733.42
2017-10-24T00:08:57.518Z,97735.28
2017-10-24T00:11:23.943Z,97731.03
2017-10-24T00:13:50.376Z,97736.35
2017-10-24T00:16:16.821Z,97744.19
2017-10-24T00:18:43.248Z,97746.50
2017-10-24T00:21:10.501Z,97742.48
2017-10-24T00:23:36.941Z,97743.52
2017-10-24T00:26:03.372Z,97744.94
2017-10-24T00:28:29.806Z,97735.16
2017-10-24T00:30:56.231Z,97730.70
2017-10-24T00:33:22.678Z,97733.83
2017-10-24T00:35:49.120Z,97726.44
2017-10-24T00:38:16.363Z,97726.81
2017-10-24T00:40:42.807Z,97721.13
2017-10-24T00:43:09.192Z,97707.91
2017-10-24T00:45:35.668Z,97711.34
2017-10-24T00:48:02.103Z,97717.80
2017-10-24T00:50:28.546Z,97710.47
2017-10-24T00:52:54.982Z,97714.22
2017-10-24T00:55:22.134Z,97713.67
2017-10-24T00:57:48.560Z,97715.02
2017-10-24T01:00:14.937Z,97713.27
2017-10-24T01:02:41.328Z,97713.55
2017-10-24T01:05:07.762Z,97720.57
2017-10-24T01:07:34.196Z,97716.13
2017-10-24T01:10:00.529Z,97725.38
2017-10-24T01:12:27.775Z,97731.70
2017-10-24T01:14:54.226Z,97725.66
2017-10-24T01:17:20.655Z,97717.57
2017-10-24T01:19:47.095Z,97713.84
2017-10-24T01:22:13.534Z,97715.68
2017-10-24T01:24:39.968Z,97710.98
2017-10-24T01:27:06.394Z,97712.90
2017-10-24T01:29:33.545Z,97704.81
2017-10-24T01:31:59.979Z,97707.97
2017-10-24T01:34:26.413Z,97696.56
2017-10-24T01:36:52.849Z,97678.83
2017-10-24T01:39:19.285Z,97681.84
2017-10-24T01:41:45.718Z,97680.09
2017-10-24T01:44:12.154Z,97671.16
2017-10-24T01:46:39.415Z,97669.44
2017-10-24T01:49:05.942Z,97670.27
2017-10-24T01:51:32.352Z,97663.86
2017-10-24T01:53:58.813Z,97665.29
2017-10-24T01:56:25.248Z,97666.35
2017-10-24T01:58:51.682Z,97663.20
2017-10-24T02:01:18.126Z,97672.53
2017-10-24T02:03:45.269Z,97672.84
2017-10-24T02:06:11.705Z,97667.41
2017-10-24T02:08:38.141Z,97662.99
2017-10-24T02:11:04.573Z,97666.17
2017-10-24T02:13:31.019Z,97673.00
2017-10-24T02:15:57.444Z,97684.55
2017-10-24T02:18:23.888Z,97697.91
2017-10-24T02:20:51.030Z,97707.66
2017-10-24T02:23:17.475Z,97710.56
2017-10-24T02:25:43.899Z,97713.26
2017-10-24T02:28:10.334Z,97718.70
2017-10-24T02:30:36.708Z,97716.09
2017-10-24T02:33:03.105Z,97718.66
2017-10-24T02:35:29.536Z,97707.98
2017-10-24T02:37:56.799Z,97705.28
2017-10-24T02:40:23.225Z,97691.86
2017-10-24T02:42:49.667Z,97687.19
2017-10-24T02:45:16.196Z,97691.94
2017-10-24T02:47:42.632Z,97700.16
2017-10-24T02:50:09.065Z,97693.30
2017-10-24T02:52:35.398Z,97696.84
2017-10-24T02:55:02.696Z,97699.06
2017-10-24T02:57:29.088Z,97709.88
2017-10-24T02:59:55.530Z,97712.41
2017-10-24T03:02:21.966Z,97715.04
2017-10-24T03:04:48.393Z,97721.61
2017-10-24T03:07:14.766Z,97736.38
2017-10-24T03:09:41.169Z,97741.03
2017-10-24T03:12:08.413Z,97745.02
2017-10-24T03:14:34.849Z,97740.18
2017-10-24T03:17:01.282Z,97739.39
2017-10-24T03:19:27.718Z,97737.18
2017-10-24T03:21:54.253Z,97731.48
2017-10-24T03:24:20.700Z,97722.37
2017-10-24T03:26:47.133Z,97714.56
2017-10-24T03:29:14.278Z,97712.73
2017-10-24T03:31:40.711Z,97714.00
2017-10-24T03:34:07.146Z,97718.18
2017-10-24T03:36:33.587Z,97707.98
2017-10-24T03:39:00.018Z,97698.28
2017-10-24T03:41:26.450Z,97701.84
2017-10-24T03:43:52.895Z,97695.28
2017-10-24T03:46:20.039Z,97698.12
2017-10-24T03:48:46.473Z,97704.74
2017-10-24T03:51:12.907Z,97710.83
2017-10-24T03:53:39.340Z,97719.06
2017-10-24T03:56:05.776Z,97725.62
2017-10-24T03:58:32.218Z,97738.45
2017-10-24T04:00:58.653Z,97745.56
2017-10-24T04:03:25.759Z,97744.69
2017-10-24T04:05:52.231Z,97742.00
2017-10-24T04:08:18.667Z,97750.70
2017-10-24T04:10:45.111Z,97752.67
2017-10-24T04:13:11.545Z,97759.09
2017-10-24T04:15:37.991Z,97761.59
2017-10-24T04:18:04.405Z,97770.21
2017-10-24T04:20:31.660Z,97763.97
2017-10-24T04:22:58.103Z,97769.55
2017-10-24T04:25:24.538Z,97773.47
2017-10-24T04:27:50.963Z,97781.53
2017-10-24T04:30:17.399Z,97781.52
2017-10-24T04:32:43.835Z,97773.70
2017-10-24T04:35:10.277Z,97780.78
2017-10-24T04:37:37.501Z,97789.43
2017-10-24T04:40:03.943Z,97796.47
2017-10-24T04:42:30.393Z,97797.24
2017-10-24T04:44:56.835Z,97788.80
2017-10-24T04:47:23.262Z,97779.72
2017-10-24T04:49:49.696Z,97775.09
2017-10-24T04:52:16.131Z,97771.31
2017-10-24T04:54:43.496Z,97780.08
2017-10-24T04:57:09.963Z,97787.12
2017-10-24T04:59:36.468Z,97790.44
2017-10-24T05:02:02.998Z,97784.27
2017-10-24T05:04:29.816Z,97781.65
2017-10-24T05:06:56.258Z,97785.91
2017-10-24T05:09:22.716Z,97789.03
2017-10-24T05:11:49.256Z,97791.33
2017-10-24T05:14:15.692Z,97788.26
2017-10-24T05:16:42.322Z,97784.08
2017-10-24T05:19:08.926Z,97793.00
2017-10-24T05:21:35.337Z,97787.47
2017-10-24T05:24:01.806Z,97779.46
2017-10-24T05:26:28.277Z,97800.22
2017-10-24T05:28:55.316Z,97806.55
2017-10-24T05:31:21.759Z,97812.08
2017-10-24T05:33:48.191Z,97816.20
2017-10-24T05:36:14.634Z,97817.80
2017-10-24T05:38:41.069Z,97810.81
2017-10-24T05:41:07.489Z,97805.45
2017-10-24T05:43:33.928Z,97817.23
2017-10-24T05:46:00.370Z,97816.38
2017-10-24T05:48:26.795Z,97812.00
2017-10-24T05:50:53.332Z,97807.98
2017-10-24T05:53:19.773Z,97810.99
2017-10-24T05:55:46.307Z,97814.69
2017-10-24T05:58:12.946Z,97815.78
2017-10-24T06:00:41.242Z,97807.45
2017-10-24T06:03:07.861Z,97807.91
2017-10-24T06:05:34.751Z,97812.50
2017-10-24T06:08:01.353Z,97813.36
2017-10-24T06:10:27.894Z,97805.02
2017-10-24T06:12:54.829Z,97798.47
2017-10-24T06:15:21.370Z,97809.56
2017-10-24T06:17:47.903Z,97819.64
2017-10-24T06:20:14.346Z,97823.52
2017-10-24T06:22:41.192Z,97823.97
2017-10-24T06:25:07.586Z,97830.58
2017-10-24T06:27:34.056Z,97832.88
2017-10-24T06:30:00.597Z,97827.66
2017-10-24T06:32:27.228Z,97827.88
2017-10-24T06:34:53.673Z,97813.42
2017-10-24T06:37:20.099Z,97801.05
2017-10-24T06:39:46.533Z,97786.95
2017-10-24T06:42:13.134Z,97792.06
2017-10-24T06:44:40.667Z,97788.61
2017-10-24T06:47:07.178Z,97789.71
2017-10-24T06:49:33.607Z,97775.87
2017-10-24T06:52:00.012Z,97791.53
2017-10-24T06:54:26.481Z,97827.35
2017-10-24T06:56:53.559Z,97833.97
2017-10-24T06:59:20.030Z,97817.67
2017-10-24T07:01:46.506Z,97814.02
2017-10-24T07:04:13.224Z,97823.92
2017-10-24T07:06:40.269Z,97836.23
2017-10-24T07:09:07.437Z,97841.67
2017-10-24T07:11:34.552Z,97854.84
2017-10-24T07:14:01.620Z,97854.63
2017-10-24T07:16:28.769Z,97835.88
2017-10-24T07:18:55.941Z,97821.14
2017-10-24T07:21:23.093Z,97813.87
2017-10-24T07:23:50.325Z,97796.59
2017-10-24T07:26:17.303Z,97802.54
2017-10-24T07:28:44.344Z,97806.91
2017-10-24T07:31:11.495Z,97812.41
2017-10-24T07:33:39.265Z,97823.38
2017-10-24T07:36:06.309Z,97835.51
2017-10-24T07:38:34.274Z,97854.24
2017-10-24T07:41:01.536Z,97864.92
2017-10-24T07:43:28.819Z,97876.84
2017-10-24T07:45:55.940Z,97879.61
2017-10-24T07:48:23.000Z,97881.23
2017-10-24T07:50:50.039Z,97897.41
2017-10-24T07:53:17.301Z,97900.41
2017-10-24T07:55:44.310Z,97892.72
2017-10-24T07:58:11.569Z,97891.69
2017-10-24T08:00:38.646Z,97896.62
2017-10-24T08:03:05.901Z,97877.55
2017-10-24T08:05:33.461Z,97860.45
2017-10-24T08:08:00.518Z,97879.63
2017-10-24T08:10:27.056Z,97889.09
2017-10-24T08:12:53.916Z,97892.76
2017-10-24T08:15:20.672Z,97889.85
2017-10-24T08:17:47.067Z,97885.38
2017-10-24T08:20:13.614Z,97879.34
2017-10-24T08:22:40.151Z,97883.80
2017-10-24T08:25:06.689Z,97901.28
2017-10-24T08:27:33.218Z,97911.59
2017-10-24T08:30:00.063Z,97914.92
2017-10-24T08:32:28.024Z,97916.75
2017-10-24T08:34:54.475Z,97928.51
2017-10-24T08:37:20.902Z,97940.65
2017-10-24T08:39:47.849Z,97944.91
2017-10-24T08:42:14.592Z,97950.75
2017-10-24T08:44:41.826Z,97960.98
2017-10-24T08:47:08.679Z,97971.06
2017-10-24T08:49:35.132Z,97979.41
2017-10-24T08:52:01.874Z,97965.98
2017-10-24T08:54:29.022Z,97972.98
2017-10-24T08:56:55.563Z,97982.40
2017-10-24T08:59:22.083Z,97975.05
2017-10-24T09:01:48.936Z,97972.09
2017-10-24T09:04:15.466Z,97974.00
2017-10-24T09:06:42.019Z,97981.89
2017-10-24T09:09:08.714Z,97987.31
2017-10-24T09:11:35.197Z,97965.00
2017-10-24T09:14:01.735Z,97969.54
2017-10-24T09:16:28.569Z,97976.41
2017-10-24T09:18:55.004Z,97986.91
2017-10-24T09:21:21.864Z,97977.08
2017-10-24T09:23:48.384Z,97978.05
2017-10-24T09:26:15.226Z,97976.17
2017-10-24T09:28:41.675Z,97976.77
2017-10-24T09:31:08.203Z,97961.69
2017-10-24T09:33:34.871Z,97957.25
2017-10-24T09:36:01.378Z,97959.22
2017-10-24T09:38:27.774Z,97951.77
2017-10-24T09:40:54.247Z,97953.70
2017-10-24T09:43:20.989Z,97952.16
2017-10-24T09:45:47.424Z,97958.28
2017-10-24T09:48:13.859Z,97955.97
2017-10-24T09:50:40.304Z,97954.50
2017-10-24T09:53:06.934Z,97953.98
2017-10-24T09:55:33.360Z,97956.49
2017-10-24T09:58:00.126Z,97965.80
2017-10-24T10:00:26.862Z,97966.34
2017-10-24T10:02:53.517Z,97962.59
2017-10-24T10:05:20.029Z,97956.99
2017-10-24T10:07:47.022Z,97957.69
2017-10-24T10:10:13.523Z,97961.30
2017-10-24T10:12:40.051Z,97966.44
2017-10-24T10:15:06.895Z,97969.94
2017-10-24T10:17:33.391Z,97965.09
2017-10-24T10:20:00.993Z,97968.89
2017-10-24T10:22:27.645Z,97981.59
2017-10-24T10:24:54.581Z,97988.75
2017-10-24T10:27:21.119Z,98000.14
2017-10-24T10:29:47.709Z,98001.52
2017-10-24T10:32:14.599Z,98011.75
2017-10-24T10:34:41.036Z,98001.81
2017-10-24T10:37:11.192Z,98003.52
2017-10-24T10:39:42.432Z,98022.31
2017-10-24T10:42:08.943Z,98031.05
2017-10-24T10:44:35.910Z,98024.31
2017-10-24T10:47:02.741Z,98015.84
2017-10-24T10:49:29.274Z,98010.80
2017-10-24T10:51:56.025Z,98006.30
2017-10-24T10:54:23.071Z,98002.73
2017-10-24T10:56:49.772Z,98005.72
2017-10-24T10:59:16.239Z,98021.44
2017-10-24T11:01:42.650Z,98027.39
2017-10-24T11:04:09.747Z,98023.61
2017-10-24T11:06:36.273Z,98027.20
2017-10-24T11:09:02.797Z,98031.80
2017-10-24T11:11:29.949Z,98038.18
2017-10-24T11:13:56.486Z,98049.43
2017-10-24T11:16:23.637Z,98052.22
2017-10-24T11:18:51.199Z,98042.95
2017-10-24T11:21:17.744Z,98038.27
2017-10-24T11:23:44.269Z,98039.12
2017-10-24T11:26:11.321Z,98044.30
2017-10-24T11:28:37.858Z,98050.34
2017-10-24T11:31:04.671Z,98056.02
2017-10-24T11:33:31.259Z,98052.70
2017-10-24T11:35:57.778Z,98061.52
2017-10-24T11:38:24.417Z,98064.68
2017-10-24T11:40:51.008Z,98057.84
2017-10-24T11:43:17.594Z,98056.27
2017-10-24T11:45:44.032Z,98063.02
2017-10-24T11:48:10.679Z,98071.34
2017-10-24T11:50:37.209Z,98072.01
2017-10-24T11:53:03.782Z,98069.62
2017-10-24T11:55:30.903Z,98067.59
2017-10-24T11:57:57.331Z,98092.02
2017-10-24T12:00:23.875Z,98093.20
2017-10-24T12:02:50.406Z,98087.11
2017-10-24T12:05:17.350Z,98074.88
2017-10-24T12:07:43.789Z,98077.84
2017-10-24T12:10:10.328Z,98092.97
2017-10-24T12:12:37.442Z,98098.42
2017-10-24T12:15:06.070Z,98105.66
2017-10-24T12:17:33.755Z,98119.56
2017-10-24T12:20:00.772Z,98109.02
2017-10-24T12:22:28.360Z,98116.45
2017-10-24T12:24:55.691Z,98121.16
2017-10-24T12:27:23.157Z,98113.61
2017-10-24T12:29:50.104Z,98116.48
2017-10-24T12:32:17.350Z,98125.13
2017-10-24T12:34:44.749Z,98129.41
2017-10-24T12:37:11.661Z,98129.34
2017-10-24T12:39:38.088Z,98120.29
2017-10-24T12:42:06.914Z,98115.29
2017-10-24T12:44:33.526Z,98107.92
2017-10-24T12:47:00.265Z,98119.09
2017-10-24T12:49:26.695Z,98118.28
2017-10-24T12:51:53.391Z,98119.34
2017-10-24T12:54:19.879Z,98115.92
2017-10-24T12:56:46.825Z,98121.18
2017-10-24T12:59:14.075Z,98120.92
2017-10-24T13:01:41.029Z,98129.91
2017-10-24T13:04:07.761Z,98136.19
2017-10-24T13:06:34.307Z,98130.77
2017-10-24T13:09:00.835Z,98133.32
2017-10-24T13:11:27.833Z,98134.19
2017-10-24T13:13:54.523Z,98143.13
2017-10-24T13:16:21.172Z,98141.95
2017-10-24T13:18:48.107Z,98139.95
2017-10-24T13:21:15.281Z,98151.23
2017-10-24T13:23:41.814Z,98155.54
2017-10-24T13:26:09.266Z,98154.91
2017-10-24T13:28:35.796Z,98150.50
2017-10-24T13:31:02.230Z,98162.92
2017-10-24T13:33:28.972Z,98169.11
2017-10-24T13:35:55.621Z,98171.02
2017-10-24T13:38:22.829Z,98158.30
2017-10-24T13:40:49.812Z,98149.50
2017-10-24T13:43:16.600Z,98152.36
2017-10-24T13:45:43.133Z,98163.97
2017-10-24T13:48:09.616Z,98163.09
2017-10-24T13:50:36.055Z,98166.58
2017-10-24T13:53:03.011Z,98153.88
2017-10-24T13:55:29.761Z,98159.09
2017-10-24T13:57:56.187Z,98162.98
2017-10-24T14:00:23.032Z,98165.07
2017-10-24T14:02:49.672Z,98162.43
2017-10-24T14:05:16.217Z,98159.11
2017-10-24T14:07:42.602Z,98167.50
2017-10-24T14:10:09.073Z,98170.55
2017-10-24T14:12:37.081Z,98176.72
2017-10-24T14:15:03.688Z,98179.56
2017-10-24T14:17:30.381Z,98196.15
2017-10-24T14:19:57.385Z,98208.84
2017-10-24T14:22:24.986Z,98215.23
2017-10-24T14:24:51.678Z,98220.95
2017-10-24T14:27:18.841Z,98225.70
2017-10-24T14:29:46.024Z,98234.35
2017-10-24T14:32:12.829Z,98236.89
2017-10-24T14:34:39.618Z,98239.19
2017-10-24T14:37:06.106Z,98245.70
2017-10-24T14:39:32.798Z,98245.95
2017-10-24T14:41:59.489Z,98253.80
2017-10-24T14:44:26.608Z,98258.66
2017-10-24T14:46:53.488Z,98264.44
2017-10-24T14:49:20.026Z,98273.58
2017-10-24T14:51:47.891Z,98290.73
2017-10-24T14:54:14.569Z,98295.97
2017-10-24T14:56:41.797Z,98299.81
2017-10-24T14:59:08.638Z,98307.74
2017-10-24T15:01:35.584Z,98309.09
2017-10-24T15:04:02.214Z,98311.39
2017-10-24T15:06:28.965Z,98317.10
2017-10-24T15:08:55.596Z,98319.80
2017-10-24T15:11:22.291Z,98321.77
2017-10-24T15:13:49.182Z,98316.11
2017-10-24T15:16:15.889Z,98317.77
2017-10-24T15:18:42.880Z,98312.66
2017-10-24T15:21:10.025Z,98313.94
2017-10-24T15:23:37.187Z,98309.33
2017-10-24T15:26:04.163Z,98324.37
2017-10-24T15:28:30.863Z,98330.26
2017-10-24T15:30:57.836Z,98340.98
2017-10-24T15:33:24.971Z,98337.30
2017-10-24T15:35:52.389Z,98341.11
2017-10-24T15:38:19.336Z,98346.91
2017-10-24T15:40:46.379Z,98350.95
2017-10-24T15:43:13.367Z,98361.10
2017-10-24T15:45:40.620Z,98373.70
2017-10-24T15:48:07.728Z,98374.84
2017-10-24T15:50:34.674Z,98385.70
2017-10-24T15:53:01.727Z,98397.20
2017-10-24T15:55:29.282Z,98407.45
2017-10-24T15:57:56.384Z,98420.77
2017-10-24T16:00:24.764Z,98425.95
2017-10-24T16:02:51.882Z,98428.75
2017-10-24T16:05:18.957Z,98439.59
2017-10-24T16:07:47.132Z,98449.73
2017-10-24T16:10:14.394Z,98448.45
2017-10-24T16:12:41.546Z,98455.67
2017-10-24T16:15:08.688Z,98465.67
2017-10-24T16:17:35.954Z,98469.02
2017-10-24T16:20:02.960Z,98471.90
2017-10-24T16:22:30.050Z,98477.53
2017-10-24T16:24:56.895Z,98473.02
2017-10-24T16:27:23.322Z,98478.47
2017-10-24T16:32:11.481Z,98487.31
2017-10-24T16:34:37.915Z,98480.82
2017-10-24T16:37:04.556Z,98484.70
2017-10-24T16:39:30.989Z,98483.11
2017-10-24T16:41:57.432Z,98480.84
2017-10-24T16:44:23.858Z,98481.28
2017-10-24T16:46:50.302Z,98488.73
2017-10-24T16:49:17.045Z,98496.58
2017-10-24T16:51:43.479Z,98503.20
2017-10-24T16:54:09.905Z,98502.44
2017-10-24T16:56:36.339Z,98500.87
2017-10-24T16:59:02.775Z,98507.65
2017-10-24T17:01:29.213Z,98515.52
2017-10-24T17:03:55.746Z,98517.73
2017-10-24T17:06:22.188Z,98527.70
2017-10-24T17:08:49.138Z,98521.20
2017-10-24T17:11:15.563Z,98529.05
2017-10-24T17:13:42.006Z,98531.91
2017-10-24T17:16:08.433Z,98534.54
2017-10-24T17:18:34.867Z,98539.06
2017-10-24T17:21:01.409Z,98542.98
2017-10-24T17:23:27.848Z,98551.90
2017-10-24T17:25:54.273Z,98547.26
2017-10-24T17:31:39.573Z,98559.92
2017-10-24T17:34:05.992Z,98559.80
2017-10-24T17:36:32.443Z,98564.48
2017-10-24T17:38:58.886Z,98565.78
2017-10-24T17:41:25.210Z,98569.81
2017-10-24T17:43:51.747Z,98576.20
2017-10-24T17:46:18.191Z,98584.34
2017-10-24T17:48:44.556Z,98587.22
2017-10-24T17:51:10.949Z,98588.92
2017-10-24T17:53:37.384Z,98593.37
2017-10-24T17:56:03.819Z,98596.32
2017-10-24T17:58:30.257Z,98593.44
2017-10-24T18:00:56.690Z,98598.31
2017-10-24T18:03:23.124Z,98593.38
2017-10-24T18:05:49.567Z,98595.48
2017-10-24T18:08:16.001Z,98586.88
2017-10-24T18:10:42.451Z,98581.19
2017-10-24T18:13:08.845Z,98582.70
2017-10-24T18:15:35.311Z,98582.33
2017-10-24T18:18:02.450Z,98584.37
2017-10-24T18:20:28.892Z,98593.56
2017-10-24T18:22:55.328Z,98599.34
2017-10-24T18:25:21.764Z,98615.30
2017-10-24T18:27:48.197Z,98631.51
2017-10-24T18:30:14.595Z,98630.41
2017-10-24T18:32:41.068Z,98634.96
2017-10-24T18:35:07.493Z,98636.44
2017-10-24T18:37:33.928Z,98639.34
2017-10-24T18:40:01.196Z,98654.81
2017-10-24T18:42:27.718Z,98662.65
2017-10-24T18:44:54.153Z,98667.44
2017-10-24T18:47:20.524Z,98676.70
2017-10-24T18:49:47.032Z,98682.37
2017-10-24T18:52:13.459Z,98688.28
2017-10-24T18:54:39.892Z,98694.16
2017-10-24T18:57:06.328Z,98694.47
2017-10-24T18:59:32.771Z,98687.55
2017-10-24T19:01:59.299Z,98699.98
2017-10-24T19:04:25.743Z,98715.64
2017-10-24T19:06:52.177Z,98716.41
2017-10-24T19:09:18.540Z,98716.73
2017-10-24T19:11:44.886Z,98718.80
2017-10-24T19:14:11.378Z,98729.57
2017-10-24T19:16:37.805Z,98733.47
2017-10-24T19:19:04.213Z,98736.31
2017-10-24T19:21:30.837Z,98755.45
2017-10-24T19:23:57.314Z,98765.20
2017-10-24T19:26:23.757Z,98771.03
2017-10-24T19:28:50.183Z,98792.98
2017-10-24T19:31:16.619Z,98780.42
2017-10-24T19:33:43.063Z,98782.63
2017-10-24T19:36:11.842Z,98798.05
2017-10-24T19:41:43.217Z,98814.39
2017-10-24T19:44:12.378Z,98817.36
2017-10-24T19:46:38.825Z,98830.04
2017-10-24T19:49:05.277Z,98822.68
2017-10-24T19:51:31.720Z,98815.50
2017-10-24T19:53:58.165Z,98838.91
2017-10-24T19:56:24.535Z,98843.67
2017-10-24T19:58:51.029Z,98861.22
2017-10-24T20:01:18.723Z,98852.84
2017-10-24T20:03:45.126Z,98868.31
2017-10-24T20:06:14.636Z,98881.03
2017-10-24T20:08:41.068Z,98882.80
2017-10-24T20:11:07.502Z,98890.33
2017-10-24T20:13:34.763Z,98894.55
2017-10-24T20:16:01.190Z,98898.91
2017-10-24T20:18:27.702Z,98904.91
2017-10-24T20:20:54.152Z,98907.31
2017-10-24T20:23:20.595Z,98917.97
2017-10-24T20:25:47.038Z,98926.98
2017-10-24T20:28:13.473Z,98928.70
2017-10-24T20:30:39.903Z,98938.12
2017-10-24T20:33:06.334Z,98947.33
2017-10-24T20:35:32.771Z,98954.84
2017-10-24T20:37:59.202Z,98970.06
2017-10-24T20:40:25.638Z,98971.08
2017-10-24T20:42:52.084Z,98969.71
2017-10-24T20:45:18.503Z,98970.91
2017-10-24T20:47:44.943Z,98965.30
2017-10-24T20:50:11.385Z,98964.64
2017-10-24T20:52:37.896Z,98962.98
2017-10-24T20:55:04.344Z,98962.15
2017-10-24T20:57:30.785Z,98965.88
2017-10-24T20:59:57.218Z,98962.35
2017-10-24T21:02:23.653Z,98964.91
2017-10-24T21:04:50.089Z,98953.23
2017-10-24T21:07:16.492Z,98954.59
2017-10-24T21:09:43.368Z,98949.74
2017-10-24T21:12:09.804Z,98957.53
2017-10-24T21:14:36.246Z,98964.55
2017-10-24T21:17:02.672Z,98966.33
2017-10-24T21:19:29.107Z,98971.11
2017-10-24T21:21:55.545Z,98971.64
2017-10-24T21:24:21.977Z,98976.84
2017-10-24T21:26:48.411Z,98983.56
2017-10-24T21:29:14.855Z,98981.81
2017-10-24T21:31:41.177Z,98983.52
2017-10-24T21:34:07.616Z,98994.16
2017-10-24T21:36:34.056Z,98983.30
2017-10-24T21:39:00.512Z,98990.20
2017-10-24T21:41:26.923Z,98988.88
2017-10-24T21:43:53.481Z,98979.23
2017-10-24T21:46:19.889Z,98985.80
2017-10-24T21:48:46.326Z,99003.30
2017-10-24T21:51:12.758Z,99021.42
2017-10-24T21:53:39.193Z,99029.25
2017-10-24T21:56:05.628Z,99033.91
2017-10-24T21:58:32.063Z,99046.89
2017-10-24T22:00:58.498Z,99047.16
2017-10-24T22:03:24.933Z,99048.64
2017-10-24T22:05:51.367Z,99057.92
2017-10-24T22:08:17.904Z,99056.84
2017-10-24T22:10:44.345Z,99065.88
2017-10-24T22:13:10.774Z,99072.07
2017-10-24T22:15:37.215Z,99078.69
2017-10-24T22:18:03.624Z,99085.63
2017-10-24T22:20:30.074Z,99079.98
2017-10-24T22:22:56.514Z,99084.67
2017-10-24T22:25:22.954Z,99098.34
2017-10-24T22:27:49.383Z,99092.34
2017-10-24T22:30:16.637Z,99108.80
2017-10-24T22:32:43.080Z,99112.95
2017-10-24T22:35:09.514Z,99122.09
2017-10-24T22:37:35.941Z,99126.19
2017-10-24T22:40:02.384Z,99131.77
2017-10-24T22:42:28.831Z,99130.48
2017-10-24T22:44:55.194Z,99132.25
2017-10-24T22:47:21.689Z,99136.74
2017-10-24T22:49:48.106Z,99138.69
2017-10-24T22:52:14.520Z,99142.23
2017-10-24T22:54:40.985Z,99142.75
2017-10-24T22:57:07.428Z,99147.02
2017-10-24T22:59:33.865Z,99140.42
2017-10-24T23:02:00.299Z,99140.00
2017-10-24T23:04:26.723Z,99154.11
2017-10-24T23:06:53.159Z,99152.25
2017-10-24T23:09:19.700Z,99163.66
2017-10-24T23:11:46.129Z,99165.91
2017-10-24T23:14:12.499Z,99167.81
2017-10-24T23:16:38.838Z,99180.06
2017-10-24T23:19:05.338Z,99173.34
2017-10-24T23:21:31.767Z,99191.06
2017-10-24T23:23:58.204Z,99193.74
2017-10-24T23:26:24.637Z,99198.17
2017-10-24T23:28:51.071Z,99192.51
2017-10-24T23:31:17.617Z,99199.34
2017-10-24T23:33:44.043Z,99200.28
2017-10-24T23:36:10.480Z,99199.13
2017-10-24T23:38:36.912Z,99200.64
2017-10-24T23:41:03.355Z,99200.60
2017-10-24T23:43:29.884Z,99202.59
2017-10-24T23:45:56.332Z,99204.11
2017-10-24T23:48:22.753Z,99216.63
2017-10-24T23:50:49.189Z,99215.24
2017-10-24T23:53:15.631Z,99217.00
2017-10-24T23:55:42.064Z,99212.30
2017-10-24T23:58:08.459Z,99220.05
